sensor_id;sensor_type;location;lat;lon;timestamp;P1;durP1;ratioP1;P2;durP2;ratioP2
67090;SDS011;54007;55.818;49.058;2024-01-25T08:40:39;13.72;;;5.25;;
67090;SDS011;54007;55.818;49.058;2024-01-25T08:43:11;11.30;;;5.10;;
67090;SDS011;54007;55.818;49.058;2024-01-25T08:45:37;14.63;;;5.10;;
67090;SDS011;54007;55.818;49.058;2024-01-25T08:48:03;17.23;;;5.10;;
67090;SDS011;54007;55.818;49.058;2024-01-25T08:50:38;13.93;;;5.20;;
67090;SDS011;54007;55.818;49.058;2024-01-25T08:52:55;12.05;;;5.12;;
67090;SDS011;54007;55.818;49.058;2024-01-25T08:55:21;16.85;;;5.17;;
67090;SDS011;54007;55.818;49.058;2024-01-25T08:57:47;13.80;;;5.20;;
67090;SDS011;54007;55.818;49.058;2024-01-25T09:00:13;14.10;;;5.00;;
67090;SDS011;54007;55.818;49.058;2024-01-25T09:02:39;13.25;;;5.20;;
67090;SDS011;54007;55.818;49.058;2024-01-25T09:05:07;15.25;;;5.47;;
67090;SDS011;54007;55.818;49.058;2024-01-25T09:07:33;12.83;;;5.57;;
67090;SDS011;54007;55.818;49.058;2024-01-25T09:09:59;15.85;;;5.17;;
67090;SDS011;54007;55.818;49.058;2024-01-25T09:12:25;12.70;;;5.22;;
67090;SDS011;54007;55.818;49.058;2024-01-25T09:14:51;12.67;;;4.87;;
67090;SDS011;54007;55.818;49.058;2024-01-25T09:17:17;15.25;;;5.30;;
67090;SDS011;54007;55.818;49.058;2024-01-25T09:19:43;15.00;;;6.37;;
67090;SDS011;54007;55.818;49.058;2024-01-25T09:22:09;18.17;;;7.47;;
67090;SDS011;54007;55.818;49.058;2024-01-25T09:24:34;13.80;;;6.10;;
67090;SDS011;54007;55.818;49.058;2024-01-25T09:27:00;15.50;;;5.83;;
67090;SDS011;54007;55.818;49.058;2024-01-25T09:29:26;12.93;;;5.30;;
67090;SDS011;54007;55.818;49.058;2024-01-25T09:31:52;14.43;;;5.40;;
67090;SDS011;54007;55.818;49.058;2024-01-25T09:34:18;10.60;;;4.93;;
67090;SDS011;54007;55.818;49.058;2024-01-25T09:36:44;11.68;;;5.20;;
67090;SDS011;54007;55.818;49.058;2024-01-25T09:39:10;12.58;;;5.20;;
67090;SDS011;54007;55.818;49.058;2024-01-25T09:41:39;14.33;;;5.33;;
67090;SDS011;54007;55.818;49.058;2024-01-25T09:44:01;12.90;;;4.83;;
67090;SDS011;54007;55.818;49.058;2024-01-25T09:46:27;15.58;;;5.62;;
67090;SDS011;54007;55.818;49.058;2024-01-25T09:48:53;12.60;;;4.97;;
67090;SDS011;54007;55.818;49.058;2024-01-25T09:51:19;13.30;;;5.05;;
67090;SDS011;54007;55.818;49.058;2024-01-25T09:53:45;11.73;;;4.85;;
67090;SDS011;54007;55.818;49.058;2024-01-25T09:56:12;12.60;;;4.93;;
67090;SDS011;54007;55.818;49.058;2024-01-25T09:58:40;11.48;;;4.90;;
67090;SDS011;54007;55.818;49.058;2024-01-25T10:01:12;11.25;;;4.60;;
67090;SDS011;54007;55.818;49.058;2024-01-25T10:03:38;12.13;;;4.47;;
67090;SDS011;54007;55.818;49.058;2024-01-25T10:06:03;14.00;;;5.80;;
67090;SDS011;54007;55.818;49.058;2024-01-25T10:08:29;12.17;;;4.83;;
67090;SDS011;54007;55.818;49.058;2024-01-25T10:10:55;12.35;;;4.10;;
67090;SDS011;54007;55.818;49.058;2024-01-25T10:13:21;12.28;;;4.67;;
67090;SDS011;54007;55.818;49.058;2024-01-25T10:15:47;12.47;;;4.97;;
67090;SDS011;54007;55.818;49.058;2024-01-25T10:18:13;16.30;;;6.75;;
67090;SDS011;54007;55.818;49.058;2024-01-25T10:20:39;15.50;;;6.08;;
67090;SDS011;54007;55.818;49.058;2024-01-25T10:23:04;15.65;;;5.97;;
67090;SDS011;54007;55.818;49.058;2024-01-25T10:25:30;15.18;;;6.72;;
67090;SDS011;54007;55.818;49.058;2024-01-25T10:27:56;15.50;;;6.40;;
67090;SDS011;54007;55.818;49.058;2024-01-25T10:30:22;16.10;;;5.92;;
67090;SDS011;54007;55.818;49.058;2024-01-25T10:32:48;17.90;;;6.83;;
67090;SDS011;54007;55.818;49.058;2024-01-25T10:35:14;18.50;;;7.40;;
67090;SDS011;54007;55.818;49.058;2024-01-25T10:37:39;21.62;;;7.20;;
67090;SDS011;54007;55.818;49.058;2024-01-25T10:40:05;25.25;;;8.73;;
67090;SDS011;54007;55.818;49.058;2024-01-25T10:42:31;22.37;;;7.42;;
67090;SDS011;54007;55.818;49.058;2024-01-25T10:44:57;20.55;;;7.33;;
67090;SDS011;54007;55.818;49.058;2024-01-25T10:47:23;17.98;;;7.10;;
67090;SDS011;54007;55.818;49.058;2024-01-25T10:49:49;18.33;;;6.77;;
67090;SDS011;54007;55.818;49.058;2024-01-25T10:52:15;16.62;;;6.80;;
67090;SDS011;54007;55.818;49.058;2024-01-25T10:54:41;22.23;;;8.03;;
67090;SDS011;54007;55.818;49.058;2024-01-25T10:57:06;19.05;;;6.78;;
67090;SDS011;54007;55.818;49.058;2024-01-25T10:59:32;15.58;;;6.20;;
67090;SDS011;54007;55.818;49.058;2024-01-25T11:02:00;17.67;;;6.13;;
67090;SDS011;54007;55.818;49.058;2024-01-25T11:04:24;15.85;;;6.97;;
67090;SDS011;54007;55.818;49.058;2024-01-25T11:06:50;14.33;;;5.50;;
67090;SDS011;54007;55.818;49.058;2024-01-25T11:09:23;14.87;;;5.42;;
67090;SDS011;54007;55.818;49.058;2024-01-25T11:11:47;14.95;;;5.58;;
67090;SDS011;54007;55.818;49.058;2024-01-25T11:14:13;15.00;;;5.47;;
67090;SDS011;54007;55.818;49.058;2024-01-25T11:16:39;13.77;;;5.17;;
67090;SDS011;54007;55.818;49.058;2024-01-25T11:19:05;15.65;;;5.53;;
67090;SDS011;54007;55.818;49.058;2024-01-25T11:24:05;13.67;;;5.53;;
67090;SDS011;54007;55.818;49.058;2024-01-25T11:26:34;14.45;;;5.87;;
67090;SDS011;54007;55.818;49.058;2024-01-25T11:29:00;10.65;;;4.15;;
67090;SDS011;54007;55.818;49.058;2024-01-25T11:31:28;13.60;;;4.80;;
67090;SDS011;54007;55.818;49.058;2024-01-25T11:33:51;11.57;;;4.90;;
67090;SDS011;54007;55.818;49.058;2024-01-25T11:36:20;12.68;;;4.50;;
67090;SDS011;54007;55.818;49.058;2024-01-25T11:38:43;12.70;;;4.47;;
67090;SDS011;54007;55.818;49.058;2024-01-25T11:41:09;12.45;;;4.50;;
67090;SDS011;54007;55.818;49.058;2024-01-25T11:43:35;11.65;;;4.15;;
67090;SDS011;54007;55.818;49.058;2024-01-25T11:46:01;10.23;;;3.80;;
67090;SDS011;54007;55.818;49.058;2024-01-25T11:48:27;8.33;;;3.40;;
67090;SDS011;54007;55.818;49.058;2024-01-25T11:50:53;12.95;;;3.92;;
67090;SDS011;54007;55.818;49.058;2024-01-25T11:53:18;11.50;;;4.27;;
67090;SDS011;54007;55.818;49.058;2024-01-25T11:55:44;12.35;;;4.80;;
67090;SDS011;54007;55.818;49.058;2024-01-25T11:58:10;10.65;;;4.08;;
67090;SDS011;54007;55.818;49.058;2024-01-25T12:00:36;13.03;;;4.50;;
67090;SDS011;54007;55.818;49.058;2024-01-25T12:03:02;12.93;;;5.12;;
67090;SDS011;54007;55.818;49.058;2024-01-25T12:05:28;9.23;;;3.70;;
67090;SDS011;54007;55.818;49.058;2024-01-25T12:07:53;9.25;;;4.03;;
67090;SDS011;54007;55.818;49.058;2024-01-25T12:10:19;11.65;;;3.77;;
67090;SDS011;54007;55.818;49.058;2024-01-25T12:12:45;9.70;;;3.60;;
67090;SDS011;54007;55.818;49.058;2024-01-25T12:15:11;11.12;;;4.45;;
67090;SDS011;54007;55.818;49.058;2024-01-25T12:17:37;12.07;;;4.80;;
67090;SDS011;54007;55.818;49.058;2024-01-25T12:20:06;10.65;;;4.55;;
67090;SDS011;54007;55.818;49.058;2024-01-25T12:22:34;17.17;;;5.65;;
67090;SDS011;54007;55.818;49.058;2024-01-25T12:25:00;14.55;;;6.17;;
67090;SDS011;54007;55.818;49.058;2024-01-25T12:27:26;18.30;;;6.77;;
67090;SDS011;54007;55.818;49.058;2024-01-25T12:29:52;20.95;;;7.42;;
67090;SDS011;54007;55.818;49.058;2024-01-25T12:32:18;20.20;;;8.20;;
67090;SDS011;54007;55.818;49.058;2024-01-25T12:35:05;20.57;;;9.13;;
67090;SDS011;54007;55.818;49.058;2024-01-25T12:37:09;18.42;;;7.30;;
67090;SDS011;54007;55.818;49.058;2024-01-25T12:39:41;20.33;;;8.00;;
67090;SDS011;54007;55.818;49.058;2024-01-25T12:42:07;21.30;;;7.78;;
67090;SDS011;54007;55.818;49.058;2024-01-25T12:44:33;25.08;;;9.90;;
67090;SDS011;54007;55.818;49.058;2024-01-25T12:46:59;29.47;;;11.87;;
67090;SDS011;54007;55.818;49.058;2024-01-25T12:49:25;27.50;;;11.35;;
67090;SDS011;54007;55.818;49.058;2024-01-25T12:51:51;23.70;;;10.25;;
67090;SDS011;54007;55.818;49.058;2024-01-25T12:54:16;25.70;;;9.40;;
67090;SDS011;54007;55.818;49.058;2024-01-25T12:56:42;23.20;;;10.20;;
67090;SDS011;54007;55.818;49.058;2024-01-25T12:59:08;25.80;;;9.83;;
67090;SDS011;54007;55.818;49.058;2024-01-25T13:01:34;21.37;;;9.68;;
67090;SDS011;54007;55.818;49.058;2024-01-25T13:04:00;21.40;;;9.18;;
67090;SDS011;54007;55.818;49.058;2024-01-25T13:06:26;18.25;;;8.10;;
67090;SDS011;54007;55.818;49.058;2024-01-25T13:08:52;17.87;;;7.50;;
67090;SDS011;54007;55.818;49.058;2024-01-25T13:11:18;17.30;;;6.67;;
67090;SDS011;54007;55.818;49.058;2024-01-25T13:13:43;15.63;;;7.03;;
67090;SDS011;54007;55.818;49.058;2024-01-25T13:16:09;15.28;;;6.62;;
67090;SDS011;54007;55.818;49.058;2024-01-25T13:18:35;20.27;;;7.10;;
67090;SDS011;54007;55.818;49.058;2024-01-25T13:21:01;19.30;;;7.78;;
67090;SDS011;54007;55.818;49.058;2024-01-25T13:23:27;25.72;;;9.90;;
67090;SDS011;54007;55.818;49.058;2024-01-25T13:25:53;26.33;;;10.40;;
67090;SDS011;54007;55.818;49.058;2024-01-25T13:28:18;27.30;;;9.30;;
67090;SDS011;54007;55.818;49.058;2024-01-25T13:30:44;21.43;;;8.13;;
67090;SDS011;54007;55.818;49.058;2024-01-25T13:33:10;18.23;;;8.20;;
67090;SDS011;54007;55.818;49.058;2024-01-25T13:35:36;21.55;;;7.30;;
67090;SDS011;54007;55.818;49.058;2024-01-25T13:38:02;20.17;;;7.30;;
67090;SDS011;54007;55.818;49.058;2024-01-25T13:40:28;22.82;;;8.03;;
67090;SDS011;54007;55.818;49.058;2024-01-25T13:42:54;25.10;;;8.57;;
67090;SDS011;54007;55.818;49.058;2024-01-25T13:45:20;28.02;;;8.48;;
67090;SDS011;54007;55.818;49.058;2024-01-25T13:47:45;22.58;;;8.00;;
67090;SDS011;54007;55.818;49.058;2024-01-25T13:50:11;21.70;;;8.53;;
67090;SDS011;54007;55.818;49.058;2024-01-25T13:52:37;22.02;;;8.03;;
67090;SDS011;54007;55.818;49.058;2024-01-25T13:55:03;23.80;;;8.53;;
67090;SDS011;54007;55.818;49.058;2024-01-25T13:57:35;24.32;;;8.88;;
67090;SDS011;54007;55.818;49.058;2024-01-25T14:00:01;21.55;;;8.33;;
67090;SDS011;54007;55.818;49.058;2024-01-25T14:02:26;23.93;;;8.73;;
67090;SDS011;54007;55.818;49.058;2024-01-25T14:04:52;22.58;;;8.30;;
67090;SDS011;54007;55.818;49.058;2024-01-25T14:07:18;21.48;;;8.48;;
67090;SDS011;54007;55.818;49.058;2024-01-25T14:09:44;20.20;;;7.17;;
67090;SDS011;54007;55.818;49.058;2024-01-25T14:12:10;18.10;;;7.30;;
67090;SDS011;54007;55.818;49.058;2024-01-25T14:14:36;21.63;;;8.30;;
67090;SDS011;54007;55.818;49.058;2024-01-25T14:17:02;19.10;;;7.55;;
67090;SDS011;54007;55.818;49.058;2024-01-25T14:19:27;17.62;;;6.72;;
67090;SDS011;54007;55.818;49.058;2024-01-25T14:21:53;18.07;;;6.90;;
67090;SDS011;54007;55.818;49.058;2024-01-25T14:24:19;17.52;;;6.72;;
67090;SDS011;54007;55.818;49.058;2024-01-25T14:26:45;18.02;;;7.47;;
67090;SDS011;54007;55.818;49.058;2024-01-25T14:29:12;22.20;;;7.43;;
67090;SDS011;54007;55.818;49.058;2024-01-25T14:31:37;23.02;;;7.50;;
67090;SDS011;54007;55.818;49.058;2024-01-25T14:34:03;23.67;;;8.43;;
67090;SDS011;54007;55.818;49.058;2024-01-25T14:36:29;16.97;;;6.10;;
67090;SDS011;54007;55.818;49.058;2024-01-25T14:38:54;18.90;;;7.22;;
67090;SDS011;54007;55.818;49.058;2024-01-25T14:41:20;20.10;;;6.60;;
67090;SDS011;54007;55.818;49.058;2024-01-25T14:43:46;18.70;;;6.40;;
67090;SDS011;54007;55.818;49.058;2024-01-25T14:46:12;19.45;;;6.83;;
67090;SDS011;54007;55.818;49.058;2024-01-25T14:48:38;17.73;;;7.53;;
67090;SDS011;54007;55.818;49.058;2024-01-25T14:51:04;21.27;;;6.90;;
67090;SDS011;54007;55.818;49.058;2024-01-25T14:53:30;17.73;;;6.97;;
67090;SDS011;54007;55.818;49.058;2024-01-25T14:55:55;20.88;;;7.85;;
67090;SDS011;54007;55.818;49.058;2024-01-25T14:58:21;21.33;;;6.78;;
67090;SDS011;54007;55.818;49.058;2024-01-25T15:00:51;18.40;;;7.27;;
67090;SDS011;54007;55.818;49.058;2024-01-25T15:03:16;16.90;;;7.30;;
67090;SDS011;54007;55.818;49.058;2024-01-25T15:05:42;20.15;;;7.40;;
67090;SDS011;54007;55.818;49.058;2024-01-25T15:08:08;18.03;;;8.43;;
67090;SDS011;54007;55.818;49.058;2024-01-25T15:10:34;22.65;;;7.72;;
67090;SDS011;54007;55.818;49.058;2024-01-25T15:13:00;22.35;;;8.18;;
67090;SDS011;54007;55.818;49.058;2024-01-25T15:15:32;23.43;;;9.03;;
67090;SDS011;54007;55.818;49.058;2024-01-25T15:17:58;25.60;;;9.00;;
67090;SDS011;54007;55.818;49.058;2024-01-25T15:20:23;24.07;;;9.00;;
67090;SDS011;54007;55.818;49.058;2024-01-25T15:22:49;22.93;;;9.23;;
67090;SDS011;54007;55.818;49.058;2024-01-25T15:25:15;18.92;;;7.42;;
67090;SDS011;54007;55.818;49.058;2024-01-25T15:27:41;21.33;;;7.60;;
67090;SDS011;54007;55.818;49.058;2024-01-25T15:30:07;21.27;;;8.20;;
67090;SDS011;54007;55.818;49.058;2024-01-25T15:32:33;20.30;;;8.03;;
67090;SDS011;54007;55.818;49.058;2024-01-25T15:34:59;21.17;;;7.23;;
67090;SDS011;54007;55.818;49.058;2024-01-25T15:37:24;19.40;;;7.20;;
67090;SDS011;54007;55.818;49.058;2024-01-25T15:39:50;18.95;;;7.60;;
67090;SDS011;54007;55.818;49.058;2024-01-25T15:42:16;17.43;;;6.43;;
67090;SDS011;54007;55.818;49.058;2024-01-25T15:44:42;14.65;;;6.28;;
67090;SDS011;54007;55.818;49.058;2024-01-25T15:47:08;19.87;;;8.15;;
67090;SDS011;54007;55.818;49.058;2024-01-25T15:49:34;15.90;;;5.97;;
67090;SDS011;54007;55.818;49.058;2024-01-25T15:52:00;21.57;;;7.62;;
67090;SDS011;54007;55.818;49.058;2024-01-25T15:54:26;18.40;;;7.87;;
67090;SDS011;54007;55.818;49.058;2024-01-25T15:56:52;19.95;;;7.70;;
67090;SDS011;54007;55.818;49.058;2024-01-25T15:59:18;28.38;;;10.72;;
67090;SDS011;54007;55.818;49.058;2024-01-25T16:01:43;19.70;;;7.20;;
67090;SDS011;54007;55.818;49.058;2024-01-25T16:04:09;13.43;;;5.50;;
67090;SDS011;54007;55.818;49.058;2024-01-25T16:06:35;16.12;;;6.95;;
67090;SDS011;54007;55.818;49.058;2024-01-25T16:09:01;13.87;;;5.40;;
67090;SDS011;54007;55.818;49.058;2024-01-25T16:11:27;17.20;;;6.00;;
67090;SDS011;54007;55.818;49.058;2024-01-25T16:13:53;13.93;;;6.05;;
67090;SDS011;54007;55.818;49.058;2024-01-25T16:16:18;15.13;;;5.80;;
67090;SDS011;54007;55.818;49.058;2024-01-25T16:18:44;17.55;;;5.83;;
67090;SDS011;54007;55.818;49.058;2024-01-25T16:21:10;15.90;;;5.70;;
67090;SDS011;54007;55.818;49.058;2024-01-25T16:23:36;20.05;;;6.00;;
67090;SDS011;54007;55.818;49.058;2024-01-25T16:26:02;19.37;;;7.42;;
67090;SDS011;54007;55.818;49.058;2024-01-25T16:28:28;16.15;;;5.95;;
67090;SDS011;54007;55.818;49.058;2024-01-25T16:30:53;13.65;;;5.17;;
67090;SDS011;54007;55.818;49.058;2024-01-25T16:33:19;17.33;;;6.60;;
67090;SDS011;54007;55.818;49.058;2024-01-25T16:35:45;16.32;;;6.20;;
67090;SDS011;54007;55.818;49.058;2024-01-25T16:38:11;14.28;;;5.62;;
67090;SDS011;54007;55.818;49.058;2024-01-25T16:40:37;12.23;;;5.53;;
67090;SDS011;54007;55.818;49.058;2024-01-25T16:43:03;14.40;;;5.28;;
67090;SDS011;54007;55.818;49.058;2024-01-25T16:45:28;15.87;;;5.57;;
67090;SDS011;54007;55.818;49.058;2024-01-25T16:47:54;17.35;;;5.33;;
67090;SDS011;54007;55.818;49.058;2024-01-25T16:50:20;15.35;;;5.20;;
67090;SDS011;54007;55.818;49.058;2024-01-25T16:52:46;15.15;;;5.00;;
67090;SDS011;54007;55.818;49.058;2024-01-25T16:55:12;15.85;;;5.50;;
67090;SDS011;54007;55.818;49.058;2024-01-25T16:57:38;16.50;;;5.63;;
67090;SDS011;54007;55.818;49.058;2024-01-25T17:00:08;13.93;;;4.97;;
67090;SDS011;54007;55.818;49.058;2024-01-25T17:02:33;12.00;;;5.03;;
67090;SDS011;54007;55.818;49.058;2024-01-25T17:05:02;14.57;;;5.47;;
67090;SDS011;54007;55.818;49.058;2024-01-25T17:07:25;16.67;;;5.67;;
67090;SDS011;54007;55.818;49.058;2024-01-25T17:09:51;14.50;;;5.50;;
67090;SDS011;54007;55.818;49.058;2024-01-25T17:12:17;16.47;;;5.93;;
67090;SDS011;54007;55.818;49.058;2024-01-25T17:14:43;16.23;;;5.65;;
67090;SDS011;54007;55.818;49.058;2024-01-25T17:17:09;24.33;;;8.83;;
67090;SDS011;54007;55.818;49.058;2024-01-25T17:19:37;16.87;;;5.97;;
67090;SDS011;54007;55.818;49.058;2024-01-25T17:22:03;13.95;;;5.75;;
67090;SDS011;54007;55.818;49.058;2024-01-25T17:24:29;18.27;;;7.37;;
67090;SDS011;54007;55.818;49.058;2024-01-25T17:26:55;17.87;;;6.72;;
67090;SDS011;54007;55.818;49.058;2024-01-25T17:29:21;16.27;;;6.80;;
67090;SDS011;54007;55.818;49.058;2024-01-25T17:31:47;19.40;;;6.93;;
67090;SDS011;54007;55.818;49.058;2024-01-25T17:34:12;22.02;;;7.12;;
67090;SDS011;54007;55.818;49.058;2024-01-25T17:36:38;15.80;;;6.73;;
67090;SDS011;54007;55.818;49.058;2024-01-25T17:39:04;16.90;;;6.90;;
67090;SDS011;54007;55.818;49.058;2024-01-25T17:41:30;17.60;;;7.05;;
67090;SDS011;54007;55.818;49.058;2024-01-25T17:43:56;18.10;;;6.90;;
67090;SDS011;54007;55.818;49.058;2024-01-25T17:46:22;16.70;;;7.47;;
67090;SDS011;54007;55.818;49.058;2024-01-25T17:48:47;19.75;;;7.97;;
67090;SDS011;54007;55.818;49.058;2024-01-25T17:51:13;21.00;;;7.33;;
67090;SDS011;54007;55.818;49.058;2024-01-25T17:53:39;18.20;;;6.60;;
67090;SDS011;54007;55.818;49.058;2024-01-25T17:56:08;16.48;;;6.55;;
67090;SDS011;54007;55.818;49.058;2024-01-25T17:58:34;17.10;;;6.58;;
67090;SDS011;54007;55.818;49.058;2024-01-25T18:01:00;17.23;;;6.87;;
67090;SDS011;54007;55.818;49.058;2024-01-25T18:03:25;19.92;;;7.22;;
67090;SDS011;54007;55.818;49.058;2024-01-25T18:05:51;24.25;;;8.53;;
67090;SDS011;54007;55.818;49.058;2024-01-25T18:08:17;18.32;;;6.65;;
67090;SDS011;54007;55.818;49.058;2024-01-25T18:10:43;18.33;;;6.30;;
67090;SDS011;54007;55.818;49.058;2024-01-25T18:13:09;13.00;;;5.20;;
67090;SDS011;54007;55.818;49.058;2024-01-25T18:15:35;13.03;;;5.37;;
67090;SDS011;54007;55.818;49.058;2024-01-25T18:18:01;14.58;;;4.95;;
67090;SDS011;54007;55.818;49.058;2024-01-25T18:20:26;14.90;;;5.25;;
67090;SDS011;54007;55.818;49.058;2024-01-25T18:22:52;10.37;;;4.33;;
67090;SDS011;54007;55.818;49.058;2024-01-25T18:25:18;12.98;;;4.70;;
67090;SDS011;54007;55.818;49.058;2024-01-25T18:27:44;11.63;;;4.28;;
67090;SDS011;54007;55.818;49.058;2024-01-25T18:30:10;14.10;;;4.20;;
67090;SDS011;54007;55.818;49.058;2024-01-25T18:32:36;12.23;;;4.45;;
67090;SDS011;54007;55.818;49.058;2024-01-25T18:35:02;12.37;;;4.40;;
67090;SDS011;54007;55.818;49.058;2024-01-25T18:37:27;10.75;;;4.22;;
67090;SDS011;54007;55.818;49.058;2024-01-25T18:39:53;11.00;;;4.53;;
67090;SDS011;54007;55.818;49.058;2024-01-25T18:42:19;13.53;;;4.63;;
67090;SDS011;54007;55.818;49.058;2024-01-25T18:44:45;13.35;;;5.33;;
67090;SDS011;54007;55.818;49.058;2024-01-25T18:47:11;13.10;;;4.92;;
67090;SDS011;54007;55.818;49.058;2024-01-25T18:49:37;10.40;;;4.37;;
67090;SDS011;54007;55.818;49.058;2024-01-25T18:52:06;12.58;;;4.83;;
67090;SDS011;54007;55.818;49.058;2024-01-25T18:54:32;12.25;;;5.00;;
67090;SDS011;54007;55.818;49.058;2024-01-25T18:56:57;15.37;;;5.13;;
67090;SDS011;54007;55.818;49.058;2024-01-25T18:59:23;14.38;;;4.45;;
67090;SDS011;54007;55.818;49.058;2024-01-25T19:01:49;14.58;;;4.95;;
67090;SDS011;54007;55.818;49.058;2024-01-25T19:04:15;15.00;;;4.90;;
67090;SDS011;54007;55.818;49.058;2024-01-25T19:06:41;11.90;;;4.70;;
67090;SDS011;54007;55.818;49.058;2024-01-25T19:09:13;12.75;;;4.50;;
67090;SDS011;54007;55.818;49.058;2024-01-25T19:11:39;12.53;;;4.50;;
67090;SDS011;54007;55.818;49.058;2024-01-25T19:14:04;18.23;;;4.70;;
67090;SDS011;54007;55.818;49.058;2024-01-25T19:16:30;13.53;;;4.78;;
